Terminal Aerodrome Forecast
Issued by NWS

Home | Current Version | Previous Version | Text Only | Print | Product List | Glossary On
Versions: 1 2 3 4 5 6 7 8 9 10 11 12 13 14
000
FTUS41 KPBZ 231700
TAFMGW
TAF
KMGW 231733Z 2318/2418 VRB03KT P6SM BKN250
     FM240100 15010KT 6SM -RA BKN050
     FM240300 17012G20KT 4SM -RA OVC015
     FM241000 17013KT P6SM OVC025
     FM241400 19017G35KT P6SM BKN050=

USA.gov is the U.S. government's official web portal to all federal, state and local government web resources and services.